sensor_id;sensor_type;location;lat;lon;timestamp;P1;durP1;ratioP1;P2;durP2;ratioP2
74102;SDS011;62853;46.166;3.640;2024-03-22T00:01:09;9.27;;;6.15;;
74102;SDS011;62853;46.166;3.640;2024-03-22T00:03:35;10.57;;;6.50;;
74102;SDS011;62853;46.166;3.640;2024-03-22T00:06:00;9.57;;;6.20;;
74102;SDS011;62853;46.166;3.640;2024-03-22T00:08:25;8.02;;;5.78;;
74102;SDS011;62853;46.166;3.640;2024-03-22T00:10:51;8.82;;;5.97;;
74102;SDS011;62853;46.166;3.640;2024-03-22T00:13:16;8.65;;;5.97;;
74102;SDS011;62853;46.166;3.640;2024-03-22T00:15:41;8.57;;;5.82;;
74102;SDS011;62853;46.166;3.640;2024-03-22T00:18:09;8.90;;;5.72;;
74102;SDS011;62853;46.166;3.640;2024-03-22T00:20:34;8.80;;;5.88;;
74102;SDS011;62853;46.166;3.640;2024-03-22T00:23:00;7.38;;;5.03;;
74102;SDS011;62853;46.166;3.640;2024-03-22T00:25:25;8.23;;;6.00;;
74102;SDS011;62853;46.166;3.640;2024-03-22T00:27:50;7.82;;;5.00;;
74102;SDS011;62853;46.166;3.640;2024-03-22T00:30:16;7.50;;;5.18;;
74102;SDS011;62853;46.166;3.640;2024-03-22T00:32:41;8.63;;;5.95;;
74102;SDS011;62853;46.166;3.640;2024-03-22T00:35:09;8.07;;;5.68;;
74102;SDS011;62853;46.166;3.640;2024-03-22T00:37:35;7.60;;;5.32;;
74102;SDS011;62853;46.166;3.640;2024-03-22T00:40:00;9.43;;;5.70;;
74102;SDS011;62853;46.166;3.640;2024-03-22T00:42:25;8.75;;;5.53;;
74102;SDS011;62853;46.166;3.640;2024-03-22T00:44:51;7.72;;;5.38;;
74102;SDS011;62853;46.166;3.640;2024-03-22T00:47:16;8.50;;;5.88;;
74102;SDS011;62853;46.166;3.640;2024-03-22T00:49:42;7.47;;;6.03;;
74102;SDS011;62853;46.166;3.640;2024-03-22T00:52:07;8.63;;;5.55;;
74102;SDS011;62853;46.166;3.640;2024-03-22T00:54:33;8.95;;;8.13;;
74102;SDS011;62853;46.166;3.640;2024-03-22T00:56:58;6.55;;;5.95;;
74102;SDS011;62853;46.166;3.640;2024-03-22T00:59:23;5.70;;;5.20;;
74102;SDS011;62853;46.166;3.640;2024-03-22T01:01:49;5.03;;;4.63;;
74102;SDS011;62853;46.166;3.640;2024-03-22T01:04:14;5.07;;;4.63;;
74102;SDS011;62853;46.166;3.640;2024-03-22T01:06:39;5.43;;;5.03;;
74102;SDS011;62853;46.166;3.640;2024-03-22T01:09:05;5.40;;;4.90;;
74102;SDS011;62853;46.166;3.640;2024-03-22T01:11:31;5.15;;;4.72;;
74102;SDS011;62853;46.166;3.640;2024-03-22T01:13:56;5.22;;;4.72;;
74102;SDS011;62853;46.166;3.640;2024-03-22T01:16:21;4.30;;;2.90;;
74102;SDS011;62853;46.166;3.640;2024-03-22T01:18:47;7.32;;;3.65;;
74102;SDS011;62853;46.166;3.640;2024-03-22T01:21:13;7.60;;;5.30;;
74102;SDS011;62853;46.166;3.640;2024-03-22T01:23:38;8.60;;;5.40;;
74102;SDS011;62853;46.166;3.640;2024-03-22T01:26:04;9.15;;;5.63;;
74102;SDS011;62853;46.166;3.640;2024-03-22T01:28:29;7.05;;;6.15;;
74102;SDS011;62853;46.166;3.640;2024-03-22T01:30:55;6.68;;;6.07;;
74102;SDS011;62853;46.166;3.640;2024-03-22T01:33:20;5.47;;;4.97;;
74102;SDS011;62853;46.166;3.640;2024-03-22T01:35:45;5.00;;;4.60;;
74102;SDS011;62853;46.166;3.640;2024-03-22T01:38:11;4.75;;;4.35;;
74102;SDS011;62853;46.166;3.640;2024-03-22T01:40:36;4.75;;;4.35;;
74102;SDS011;62853;46.166;3.640;2024-03-22T01:43:01;6.20;;;4.15;;
74102;SDS011;62853;46.166;3.640;2024-03-22T01:45:27;6.25;;;4.45;;
74102;SDS011;62853;46.166;3.640;2024-03-22T01:47:57;6.85;;;5.20;;
74102;SDS011;62853;46.166;3.640;2024-03-22T01:50:22;8.02;;;5.60;;
74102;SDS011;62853;46.166;3.640;2024-03-22T01:52:48;7.90;;;5.45;;
74102;SDS011;62853;46.166;3.640;2024-03-22T01:55:13;6.60;;;6.00;;
74102;SDS011;62853;46.166;3.640;2024-03-22T01:57:39;5.47;;;4.97;;
74102;SDS011;62853;46.166;3.640;2024-03-22T02:00:05;5.30;;;4.80;;
74102;SDS011;62853;46.166;3.640;2024-03-22T02:02:33;4.80;;;4.40;;
74102;SDS011;62853;46.166;3.640;2024-03-22T02:04:59;4.85;;;4.45;;
74102;SDS011;62853;46.166;3.640;2024-03-22T02:07:24;4.65;;;4.25;;
74102;SDS011;62853;46.166;3.640;2024-03-22T02:09:54;4.32;;;3.92;;
74102;SDS011;62853;46.166;3.640;2024-03-22T02:12:20;4.22;;;3.92;;
74102;SDS011;62853;46.166;3.640;2024-03-22T02:14:45;4.57;;;4.18;;
74102;SDS011;62853;46.166;3.640;2024-03-22T02:17:11;4.43;;;4.03;;
74102;SDS011;62853;46.166;3.640;2024-03-22T02:19:36;4.80;;;4.40;;
74102;SDS011;62853;46.166;3.640;2024-03-22T02:22:01;4.78;;;4.38;;
74102;SDS011;62853;46.166;3.640;2024-03-22T02:24:27;4.80;;;4.40;;
74102;SDS011;62853;46.166;3.640;2024-03-22T02:26:52;4.20;;;3.90;;
74102;SDS011;62853;46.166;3.640;2024-03-22T02:29:17;4.35;;;3.95;;
74102;SDS011;62853;46.166;3.640;2024-03-22T02:31:43;4.38;;;4.05;;
74102;SDS011;62853;46.166;3.640;2024-03-22T02:34:08;4.88;;;4.38;;
74102;SDS011;62853;46.166;3.640;2024-03-22T02:36:33;4.60;;;4.20;;
74102;SDS011;62853;46.166;3.640;2024-03-22T02:38:59;4.10;;;3.80;;
74102;SDS011;62853;46.166;3.640;2024-03-22T02:41:24;4.22;;;3.92;;
74102;SDS011;62853;46.166;3.640;2024-03-22T02:43:49;3.80;;;3.50;;
74102;SDS011;62853;46.166;3.640;2024-03-22T02:46:15;4.00;;;3.70;;
74102;SDS011;62853;46.166;3.640;2024-03-22T02:48:40;4.43;;;4.03;;
74102;SDS011;62853;46.166;3.640;2024-03-22T02:51:05;4.18;;;3.78;;
74102;SDS011;62853;46.166;3.640;2024-03-22T02:53:31;3.92;;;3.63;;
74102;SDS011;62853;46.166;3.640;2024-03-22T02:55:56;4.25;;;3.85;;
74102;SDS011;62853;46.166;3.640;2024-03-22T02:58:25;4.00;;;3.70;;
74102;SDS011;62853;46.166;3.640;2024-03-22T03:00:50;4.10;;;3.80;;
74102;SDS011;62853;46.166;3.640;2024-03-22T03:03:15;4.00;;;3.70;;
74102;SDS011;62853;46.166;3.640;2024-03-22T03:05:41;4.30;;;3.90;;
74102;SDS011;62853;46.166;3.640;2024-03-22T03:08:07;5.00;;;4.60;;
74102;SDS011;62853;46.166;3.640;2024-03-22T03:10:32;4.07;;;3.75;;
74102;SDS011;62853;46.166;3.640;2024-03-22T03:12:57;4.97;;;3.30;;
74102;SDS011;62853;46.166;3.640;2024-03-22T03:15:23;4.65;;;3.92;;
74102;SDS011;62853;46.166;3.640;2024-03-22T03:17:48;6.13;;;4.70;;
74102;SDS011;62853;46.166;3.640;2024-03-22T03:20:14;5.88;;;4.30;;
74102;SDS011;62853;46.166;3.640;2024-03-22T03:22:40;6.45;;;4.60;;
74102;SDS011;62853;46.166;3.640;2024-03-22T03:25:05;5.70;;;4.53;;
74102;SDS011;62853;46.166;3.640;2024-03-22T03:27:32;5.85;;;4.78;;
74102;SDS011;62853;46.166;3.640;2024-03-22T03:29:57;4.82;;;4.32;;
74102;SDS011;62853;46.166;3.640;2024-03-22T03:32:22;4.57;;;4.15;;
74102;SDS011;62853;46.166;3.640;2024-03-22T03:34:48;5.00;;;4.50;;
74102;SDS011;62853;46.166;3.640;2024-03-22T03:37:14;4.63;;;3.53;;
74102;SDS011;62853;46.166;3.640;2024-03-22T03:39:39;4.75;;;3.75;;
74102;SDS011;62853;46.166;3.640;2024-03-22T03:42:04;5.32;;;4.22;;
74102;SDS011;62853;46.166;3.640;2024-03-22T03:44:30;5.47;;;4.30;;
74102;SDS011;62853;46.166;3.640;2024-03-22T03:46:55;5.57;;;4.20;;
74102;SDS011;62853;46.166;3.640;2024-03-22T03:49:21;6.70;;;4.63;;
74102;SDS011;62853;46.166;3.640;2024-03-22T03:51:46;5.45;;;4.70;;
74102;SDS011;62853;46.166;3.640;2024-03-22T03:54:11;4.85;;;3.83;;
74102;SDS011;62853;46.166;3.640;2024-03-22T03:56:37;5.95;;;4.32;;
74102;SDS011;62853;46.166;3.640;2024-03-22T03:59:02;4.85;;;4.13;;
74102;SDS011;62853;46.166;3.640;2024-03-22T04:01:27;4.55;;;4.15;;
74102;SDS011;62853;46.166;3.640;2024-03-22T04:03:53;4.60;;;3.60;;
74102;SDS011;62853;46.166;3.640;2024-03-22T04:06:18;5.10;;;3.95;;
74102;SDS011;62853;46.166;3.640;2024-03-22T04:08:43;5.13;;;4.00;;
74102;SDS011;62853;46.166;3.640;2024-03-22T04:11:09;5.63;;;4.10;;
74102;SDS011;62853;46.166;3.640;2024-03-22T04:13:34;5.22;;;3.92;;
74102;SDS011;62853;46.166;3.640;2024-03-22T04:15:59;5.80;;;4.20;;
74102;SDS011;62853;46.166;3.640;2024-03-22T04:18:25;4.55;;;3.70;;
74102;SDS011;62853;46.166;3.640;2024-03-22T04:20:57;5.70;;;4.20;;
74102;SDS011;62853;46.166;3.640;2024-03-22T04:23:24;5.70;;;4.10;;
74102;SDS011;62853;46.166;3.640;2024-03-22T04:25:54;4.82;;;3.83;;
74102;SDS011;62853;46.166;3.640;2024-03-22T04:28:24;5.38;;;4.20;;
74102;SDS011;62853;46.166;3.640;2024-03-22T04:30:54;4.70;;;3.80;;
74102;SDS011;62853;46.166;3.640;2024-03-22T04:33:23;4.82;;;3.65;;
74102;SDS011;62853;46.166;3.640;2024-03-22T04:35:49;5.82;;;4.03;;
74102;SDS011;62853;46.166;3.640;2024-03-22T04:38:14;5.68;;;4.07;;
74102;SDS011;62853;46.166;3.640;2024-03-22T04:40:40;5.45;;;3.88;;
74102;SDS011;62853;46.166;3.640;2024-03-22T04:43:06;5.50;;;3.80;;
74102;SDS011;62853;46.166;3.640;2024-03-22T04:45:31;5.80;;;3.90;;
74102;SDS011;62853;46.166;3.640;2024-03-22T04:47:56;6.70;;;4.22;;
74102;SDS011;62853;46.166;3.640;2024-03-22T04:50:22;6.10;;;4.60;;
74102;SDS011;62853;46.166;3.640;2024-03-22T04:52:47;6.95;;;4.55;;
74102;SDS011;62853;46.166;3.640;2024-03-22T04:55:12;5.72;;;4.07;;
74102;SDS011;62853;46.166;3.640;2024-03-22T04:57:38;6.40;;;4.28;;
74102;SDS011;62853;46.166;3.640;2024-03-22T05:00:03;5.47;;;3.80;;
74102;SDS011;62853;46.166;3.640;2024-03-22T05:02:30;6.28;;;4.22;;
74102;SDS011;62853;46.166;3.640;2024-03-22T05:04:56;5.60;;;3.65;;
74102;SDS011;62853;46.166;3.640;2024-03-22T05:07:21;5.25;;;3.67;;
74102;SDS011;62853;46.166;3.640;2024-03-22T05:09:46;5.53;;;4.03;;
74102;SDS011;62853;46.166;3.640;2024-03-22T05:12:12;6.68;;;3.75;;
74102;SDS011;62853;46.166;3.640;2024-03-22T05:14:37;6.15;;;4.28;;
74102;SDS011;62853;46.166;3.640;2024-03-22T05:17:02;5.90;;;3.95;;
74102;SDS011;62853;46.166;3.640;2024-03-22T05:19:28;6.13;;;4.00;;
74102;SDS011;62853;46.166;3.640;2024-03-22T05:21:53;5.15;;;3.78;;
74102;SDS011;62853;46.166;3.640;2024-03-22T05:24:18;6.10;;;3.97;;
74102;SDS011;62853;46.166;3.640;2024-03-22T05:26:44;5.38;;;3.75;;
74102;SDS011;62853;46.166;3.640;2024-03-22T05:29:09;6.93;;;4.53;;
74102;SDS011;62853;46.166;3.640;2024-03-22T05:31:45;7.15;;;3.88;;
74102;SDS011;62853;46.166;3.640;2024-03-22T05:34:12;6.88;;;4.30;;
74102;SDS011;62853;46.166;3.640;2024-03-22T05:36:37;6.35;;;4.22;;
74102;SDS011;62853;46.166;3.640;2024-03-22T05:39:02;6.43;;;4.15;;
74102;SDS011;62853;46.166;3.640;2024-03-22T05:41:28;6.03;;;3.80;;
74102;SDS011;62853;46.166;3.640;2024-03-22T05:43:53;6.95;;;3.97;;
74102;SDS011;62853;46.166;3.640;2024-03-22T05:46:18;7.32;;;4.15;;
74102;SDS011;62853;46.166;3.640;2024-03-22T05:48:44;6.45;;;4.10;;
74102;SDS011;62853;46.166;3.640;2024-03-22T05:51:09;5.82;;;3.92;;
74102;SDS011;62853;46.166;3.640;2024-03-22T05:53:34;6.70;;;4.65;;
74102;SDS011;62853;46.166;3.640;2024-03-22T05:56:00;6.68;;;3.97;;
74102;SDS011;62853;46.166;3.640;2024-03-22T05:58:25;6.35;;;3.85;;
74102;SDS011;62853;46.166;3.640;2024-03-22T06:00:50;5.88;;;3.58;;
74102;SDS011;62853;46.166;3.640;2024-03-22T06:03:18;6.65;;;4.05;;
74102;SDS011;62853;46.166;3.640;2024-03-22T06:05:43;6.28;;;3.95;;
74102;SDS011;62853;46.166;3.640;2024-03-22T06:08:09;6.85;;;4.22;;
74102;SDS011;62853;46.166;3.640;2024-03-22T06:10:34;7.30;;;4.53;;
74102;SDS011;62853;46.166;3.640;2024-03-22T06:12:59;6.68;;;4.00;;
74102;SDS011;62853;46.166;3.640;2024-03-22T06:15:24;6.43;;;3.97;;
74102;SDS011;62853;46.166;3.640;2024-03-22T06:17:50;7.68;;;4.40;;
74102;SDS011;62853;46.166;3.640;2024-03-22T06:20:16;5.35;;;3.40;;
74102;SDS011;62853;46.166;3.640;2024-03-22T06:22:41;4.68;;;3.60;;
74102;SDS011;62853;46.166;3.640;2024-03-22T06:25:06;5.55;;;3.72;;
74102;SDS011;62853;46.166;3.640;2024-03-22T06:27:32;5.95;;;3.70;;
74102;SDS011;62853;46.166;3.640;2024-03-22T06:29:57;5.13;;;3.47;;
74102;SDS011;62853;46.166;3.640;2024-03-22T06:32:23;6.07;;;3.60;;
74102;SDS011;62853;46.166;3.640;2024-03-22T06:34:48;6.07;;;3.40;;
74102;SDS011;62853;46.166;3.640;2024-03-22T06:37:13;6.38;;;3.60;;
74102;SDS011;62853;46.166;3.640;2024-03-22T06:39:38;7.40;;;4.05;;
74102;SDS011;62853;46.166;3.640;2024-03-22T06:42:04;5.65;;;3.97;;
74102;SDS011;62853;46.166;3.640;2024-03-22T06:44:29;6.68;;;3.90;;
74102;SDS011;62853;46.166;3.640;2024-03-22T06:46:54;5.25;;;3.40;;
74102;SDS011;62853;46.166;3.640;2024-03-22T06:49:20;5.85;;;3.80;;
74102;SDS011;62853;46.166;3.640;2024-03-22T06:51:46;5.50;;;3.53;;
74102;SDS011;62853;46.166;3.640;2024-03-22T06:54:12;5.63;;;3.55;;
74102;SDS011;62853;46.166;3.640;2024-03-22T06:56:37;5.75;;;4.00;;
74102;SDS011;62853;46.166;3.640;2024-03-22T06:59:02;5.65;;;3.45;;
74102;SDS011;62853;46.166;3.640;2024-03-22T07:01:28;6.45;;;3.80;;
74102;SDS011;62853;46.166;3.640;2024-03-22T07:03:54;5.30;;;3.22;;
74102;SDS011;62853;46.166;3.640;2024-03-22T07:06:19;5.22;;;3.22;;
74102;SDS011;62853;46.166;3.640;2024-03-22T07:08:45;5.75;;;3.20;;
74102;SDS011;62853;46.166;3.640;2024-03-22T07:11:10;5.28;;;3.58;;
74102;SDS011;62853;46.166;3.640;2024-03-22T07:13:36;5.45;;;3.40;;
74102;SDS011;62853;46.166;3.640;2024-03-22T07:16:02;4.80;;;3.13;;
74102;SDS011;62853;46.166;3.640;2024-03-22T07:18:29;4.93;;;3.47;;
74102;SDS011;62853;46.166;3.640;2024-03-22T07:20:54;4.75;;;3.38;;
74102;SDS011;62853;46.166;3.640;2024-03-22T07:23:20;5.03;;;3.35;;
74102;SDS011;62853;46.166;3.640;2024-03-22T07:25:46;4.82;;;2.90;;
74102;SDS011;62853;46.166;3.640;2024-03-22T07:28:13;4.95;;;3.13;;
74102;SDS011;62853;46.166;3.640;2024-03-22T07:30:38;4.47;;;3.10;;
74102;SDS011;62853;46.166;3.640;2024-03-22T07:33:04;4.47;;;3.30;;
74102;SDS011;62853;46.166;3.640;2024-03-22T07:35:29;4.25;;;2.83;;
74102;SDS011;62853;46.166;3.640;2024-03-22T07:37:55;4.20;;;2.88;;
74102;SDS011;62853;46.166;3.640;2024-03-22T07:40:21;4.22;;;2.85;;
74102;SDS011;62853;46.166;3.640;2024-03-22T07:42:46;4.45;;;3.08;;
74102;SDS011;62853;46.166;3.640;2024-03-22T07:45:12;4.72;;;2.60;;
74102;SDS011;62853;46.166;3.640;2024-03-22T07:47:37;3.08;;;2.15;;
74102;SDS011;62853;46.166;3.640;2024-03-22T07:50:03;4.40;;;3.10;;
74102;SDS011;62853;46.166;3.640;2024-03-22T07:52:29;4.80;;;2.90;;
74102;SDS011;62853;46.166;3.640;2024-03-22T07:54:54;4.80;;;3.28;;
74102;SDS011;62853;46.166;3.640;2024-03-22T07:57:20;3.70;;;3.03;;
74102;SDS011;62853;46.166;3.640;2024-03-22T07:59:45;4.20;;;2.45;;
74102;SDS011;62853;46.166;3.640;2024-03-22T08:02:11;4.28;;;3.05;;
74102;SDS011;62853;46.166;3.640;2024-03-22T08:04:36;3.10;;;2.60;;
74102;SDS011;62853;46.166;3.640;2024-03-22T08:07:02;2.78;;;2.35;;
74102;SDS011;62853;46.166;3.640;2024-03-22T08:09:27;4.07;;;2.33;;
74102;SDS011;62853;46.166;3.640;2024-03-22T08:11:52;3.80;;;2.55;;
74102;SDS011;62853;46.166;3.640;2024-03-22T08:14:18;3.50;;;2.65;;
74102;SDS011;62853;46.166;3.640;2024-03-22T08:16:43;2.88;;;2.30;;
74102;SDS011;62853;46.166;3.640;2024-03-22T08:19:08;3.35;;;2.30;;
74102;SDS011;62853;46.166;3.640;2024-03-22T08:21:34;3.25;;;2.20;;
74102;SDS011;62853;46.166;3.640;2024-03-22T08:23:59;3.15;;;2.50;;
74102;SDS011;62853;46.166;3.640;2024-03-22T08:26:25;4.05;;;2.55;;
74102;SDS011;62853;46.166;3.640;2024-03-22T08:28:50;3.42;;;2.53;;
74102;SDS011;62853;46.166;3.640;2024-03-22T08:31:16;3.22;;;2.30;;
74102;SDS011;62853;46.166;3.640;2024-03-22T08:33:42;3.45;;;2.45;;
74102;SDS011;62853;46.166;3.640;2024-03-22T08:36:07;3.35;;;2.65;;
74102;SDS011;62853;46.166;3.640;2024-03-22T08:38:33;3.10;;;2.33;;
74102;SDS011;62853;46.166;3.640;2024-03-22T08:40:58;2.95;;;2.47;;
74102;SDS011;62853;46.166;3.640;2024-03-22T08:43:24;3.08;;;2.30;;
74102;SDS011;62853;46.166;3.640;2024-03-22T08:45:54;3.33;;;2.40;;
74102;SDS011;62853;46.166;3.640;2024-03-22T08:48:20;2.85;;;2.10;;
74102;SDS011;62853;46.166;3.640;2024-03-22T08:50:46;3.97;;;2.30;;
74102;SDS011;62853;46.166;3.640;2024-03-22T08:53:11;3.55;;;2.40;;
74102;SDS011;62853;46.166;3.640;2024-03-22T08:55:36;3.15;;;2.20;;
74102;SDS011;62853;46.166;3.640;2024-03-22T08:58:02;2.70;;;2.05;;
74102;SDS011;62853;46.166;3.640;2024-03-22T09:00:28;3.28;;;2.30;;
74102;SDS011;62853;46.166;3.640;2024-03-22T09:02:54;2.33;;;1.90;;
74102;SDS011;62853;46.166;3.640;2024-03-22T09:05:19;2.72;;;2.17;;
74102;SDS011;62853;46.166;3.640;2024-03-22T09:07:44;2.42;;;1.92;;
74102;SDS011;62853;46.166;3.640;2024-03-22T09:10:10;2.75;;;2.20;;
74102;SDS011;62853;46.166;3.640;2024-03-22T09:12:36;2.70;;;2.10;;
74102;SDS011;62853;46.166;3.640;2024-03-22T09:15:02;2.80;;;2.20;;
74102;SDS011;62853;46.166;3.640;2024-03-22T09:17:27;3.65;;;2.50;;
74102;SDS011;62853;46.166;3.640;2024-03-22T09:19:53;3.13;;;2.33;;
74102;SDS011;62853;46.166;3.640;2024-03-22T09:22:18;2.92;;;2.10;;
74102;SDS011;62853;46.166;3.640;2024-03-22T09:24:43;4.03;;;2.67;;
74102;SDS011;62853;46.166;3.640;2024-03-22T09:27:09;2.70;;;2.20;;
74102;SDS011;62853;46.166;3.640;2024-03-22T09:29:35;3.83;;;3.17;;
74102;SDS011;62853;46.166;3.640;2024-03-22T09:32:01;3.60;;;2.90;;
74102;SDS011;62853;46.166;3.640;2024-03-22T09:34:27;3.97;;;2.72;;
74102;SDS011;62853;46.166;3.640;2024-03-22T09:36:53;3.10;;;2.50;;
74102;SDS011;62853;46.166;3.640;2024-03-22T09:39:18;3.20;;;2.45;;
74102;SDS011;62853;46.166;3.640;2024-03-22T09:41:43;2.70;;;2.10;;
74102;SDS011;62853;46.166;3.640;2024-03-22T09:44:12;3.17;;;2.28;;
74102;SDS011;62853;46.166;3.640;2024-03-22T09:46:41;2.72;;;1.80;;
74102;SDS011;62853;46.166;3.640;2024-03-22T09:49:08;1.92;;;1.70;;
74102;SDS011;62853;46.166;3.640;2024-03-22T09:51:36;2.78;;;2.13;;
74102;SDS011;62853;46.166;3.640;2024-03-22T09:54:02;2.58;;;1.98;;
74102;SDS011;62853;46.166;3.640;2024-03-22T09:56:28;2.08;;;1.80;;
74102;SDS011;62853;46.166;3.640;2024-03-22T09:58:55;2.47;;;1.98;;
74102;SDS011;62853;46.166;3.640;2024-03-22T10:01:22;2.78;;;2.10;;
74102;SDS011;62853;46.166;3.640;2024-03-22T10:03:49;5.60;;;2.10;;
74102;SDS011;62853;46.166;3.640;2024-03-22T10:06:16;5.35;;;2.60;;
74102;SDS011;62853;46.166;3.640;2024-03-22T10:08:42;3.05;;;2.05;;
74102;SDS011;62853;46.166;3.640;2024-03-22T10:11:08;3.15;;;2.40;;
74102;SDS011;62853;46.166;3.640;2024-03-22T10:13:33;2.78;;;2.15;;
74102;SDS011;62853;46.166;3.640;2024-03-22T10:15:58;3.30;;;2.58;;
74102;SDS011;62853;46.166;3.640;2024-03-22T10:18:24;2.75;;;2.30;;
74102;SDS011;62853;46.166;3.640;2024-03-22T10:20:59;2.78;;;2.05;;
74102;SDS011;62853;46.166;3.640;2024-03-22T10:23:27;3.40;;;2.13;;
74102;SDS011;62853;46.166;3.640;2024-03-22T10:25:53;3.28;;;2.05;;
74102;SDS011;62853;46.166;3.640;2024-03-22T10:28:19;3.75;;;2.28;;
74102;SDS011;62853;46.166;3.640;2024-03-22T10:30:44;3.63;;;2.30;;
74102;SDS011;62853;46.166;3.640;2024-03-22T10:33:14;2.53;;;1.77;;
74102;SDS011;62853;46.166;3.640;2024-03-22T10:35:43;2.70;;;1.90;;
74102;SDS011;62853;46.166;3.640;2024-03-22T10:38:11;2.55;;;1.90;;
74102;SDS011;62853;46.166;3.640;2024-03-22T10:40:38;3.03;;;2.70;;
74102;SDS011;62853;46.166;3.640;2024-03-22T10:43:05;2.60;;;2.30;;
74102;SDS011;62853;46.166;3.640;2024-03-22T10:45:30;2.63;;;2.42;;
74102;SDS011;62853;46.166;3.640;2024-03-22T10:47:56;2.38;;;2.17;;
74102;SDS011;62853;46.166;3.640;2024-03-22T10:50:22;2.70;;;2.47;;
74102;SDS011;62853;46.166;3.640;2024-03-22T10:55:24;2.97;;;2.67;;
74102;SDS011;62853;46.166;3.640;2024-03-22T10:57:56;3.20;;;2.38;;
74102;SDS011;62853;46.166;3.640;2024-03-22T11:00:28;2.30;;;2.10;;
74102;SDS011;62853;46.166;3.640;2024-03-22T11:03:03;2.58;;;2.35;;
74102;SDS011;62853;46.166;3.640;2024-03-22T11:05:29;2.30;;;2.10;;
74102;SDS011;62853;46.166;3.640;2024-03-22T11:07:58;2.20;;;2.00;;
74102;SDS011;62853;46.166;3.640;2024-03-22T11:10:33;2.45;;;2.25;;
74102;SDS011;62853;46.166;3.640;2024-03-22T11:13:02;2.40;;;2.20;;
74102;SDS011;62853;46.166;3.640;2024-03-22T11:15:29;2.30;;;2.10;;
74102;SDS011;62853;46.166;3.640;2024-03-22T11:17:55;2.25;;;1.95;;
74102;SDS011;62853;46.166;3.640;2024-03-22T11:20:21;2.20;;;2.00;;
74102;SDS011;62853;46.166;3.640;2024-03-22T11:22:46;2.67;;;2.08;;
74102;SDS011;62853;46.166;3.640;2024-03-22T11:25:12;2.63;;;2.42;;
74102;SDS011;62853;46.166;3.640;2024-03-22T11:27:37;2.50;;;2.30;;
74102;SDS011;62853;46.166;3.640;2024-03-22T11:30:03;2.28;;;2.08;;
74102;SDS011;62853;46.166;3.640;2024-03-22T11:32:29;2.45;;;2.22;;
74102;SDS011;62853;46.166;3.640;2024-03-22T11:34:55;2.90;;;2.60;;
74102;SDS011;62853;46.166;3.640;2024-03-22T11:37:21;2.65;;;2.45;;
74102;SDS011;62853;46.166;3.640;2024-03-22T11:39:46;3.10;;;2.90;;
74102;SDS011;62853;46.166;3.640;2024-03-22T11:42:13;2.95;;;2.75;;
74102;SDS011;62853;46.166;3.640;2024-03-22T11:44:39;3.70;;;3.30;;
74102;SDS011;62853;46.166;3.640;2024-03-22T11:47:05;4.53;;;3.95;;
74102;SDS011;62853;46.166;3.640;2024-03-22T11:49:30;4.25;;;3.78;;
74102;SDS011;62853;46.166;3.640;2024-03-22T11:51:56;5.05;;;4.00;;
74102;SDS011;62853;46.166;3.640;2024-03-22T11:54:22;8.23;;;5.18;;
74102;SDS011;62853;46.166;3.640;2024-03-22T11:56:48;5.30;;;3.92;;
74102;SDS011;62853;46.166;3.640;2024-03-22T11:59:14;6.00;;;5.40;;
74102;SDS011;62853;46.166;3.640;2024-03-22T12:01:40;5.88;;;5.28;;
74102;SDS011;62853;46.166;3.640;2024-03-22T12:04:06;5.80;;;5.20;;
74102;SDS011;62853;46.166;3.640;2024-03-22T12:06:35;5.82;;;5.22;;
74102;SDS011;62853;46.166;3.640;2024-03-22T12:09:01;6.70;;;5.50;;
74102;SDS011;62853;46.166;3.640;2024-03-22T12:11:26;5.70;;;5.07;;
74102;SDS011;62853;46.166;3.640;2024-03-22T12:13:51;6.47;;;5.70;;
74102;SDS011;62853;46.166;3.640;2024-03-22T12:16:17;7.03;;;6.07;;
74102;SDS011;62853;46.166;3.640;2024-03-22T12:18:42;7.18;;;5.72;;
74102;SDS011;62853;46.166;3.640;2024-03-22T12:21:08;7.20;;;5.75;;
74102;SDS011;62853;46.166;3.640;2024-03-22T12:23:33;5.78;;;5.18;;
74102;SDS011;62853;46.166;3.640;2024-03-22T12:25:58;7.03;;;5.63;;
74102;SDS011;62853;46.166;3.640;2024-03-22T12:28:23;5.75;;;5.15;;
74102;SDS011;62853;46.166;3.640;2024-03-22T12:30:49;6.55;;;5.85;;
74102;SDS011;62853;46.166;3.640;2024-03-22T12:33:15;7.60;;;6.25;;
74102;SDS011;62853;46.166;3.640;2024-03-22T12:35:40;7.15;;;5.80;;
74102;SDS011;62853;46.166;3.640;2024-03-22T12:38:06;5.88;;;5.28;;
74102;SDS011;62853;46.166;3.640;2024-03-22T12:40:35;7.13;;;4.93;;
74102;SDS011;62853;46.166;3.640;2024-03-22T12:43:01;6.25;;;4.68;;
74102;SDS011;62853;46.166;3.640;2024-03-22T12:45:26;7.05;;;5.13;;
74102;SDS011;62853;46.166;3.640;2024-03-22T12:47:51;6.82;;;6.00;;
74102;SDS011;62853;46.166;3.640;2024-03-22T12:50:17;6.60;;;5.75;;
74102;SDS011;62853;46.166;3.640;2024-03-22T12:52:43;6.30;;;5.38;;
74102;SDS011;62853;46.166;3.640;2024-03-22T12:55:09;6.28;;;5.60;;
74102;SDS011;62853;46.166;3.640;2024-03-22T12:57:35;5.85;;;5.20;;
74102;SDS011;62853;46.166;3.640;2024-03-22T13:00:00;7.13;;;5.80;;
74102;SDS011;62853;46.166;3.640;2024-03-22T13:02:26;6.60;;;5.63;;
74102;SDS011;62853;46.166;3.640;2024-03-22T13:04:52;8.02;;;5.68;;
74102;SDS011;62853;46.166;3.640;2024-03-22T13:07:18;8.38;;;6.75;;
74102;SDS011;62853;46.166;3.640;2024-03-22T13:09:44;8.07;;;6.30;;
74102;SDS011;62853;46.166;3.640;2024-03-22T13:12:10;7.88;;;6.25;;
74102;SDS011;62853;46.166;3.640;2024-03-22T13:14:35;6.68;;;5.82;;
74102;SDS011;62853;46.166;3.640;2024-03-22T13:17:01;6.22;;;5.57;;
74102;SDS011;62853;46.166;3.640;2024-03-22T13:19:26;6.80;;;5.90;;
74102;SDS011;62853;46.166;3.640;2024-03-22T13:21:52;6.43;;;5.63;;
74102;SDS011;62853;46.166;3.640;2024-03-22T13:24:17;5.30;;;4.80;;
74102;SDS011;62853;46.166;3.640;2024-03-22T13:26:43;5.70;;;5.10;;
74102;SDS011;62853;46.166;3.640;2024-03-22T13:29:09;6.63;;;5.38;;
74102;SDS011;62853;46.166;3.640;2024-03-22T13:31:34;6.57;;;5.10;;
74102;SDS011;62853;46.166;3.640;2024-03-22T13:34:00;6.32;;;4.20;;
74102;SDS011;62853;46.166;3.640;2024-03-22T13:36:25;6.25;;;5.47;;
74102;SDS011;62853;46.166;3.640;2024-03-22T13:38:51;7.03;;;5.60;;
74102;SDS011;62853;46.166;3.640;2024-03-22T13:41:16;7.75;;;5.90;;
74102;SDS011;62853;46.166;3.640;2024-03-22T13:43:42;6.85;;;5.93;;
74102;SDS011;62853;46.166;3.640;2024-03-22T13:46:09;6.95;;;5.88;;
74102;SDS011;62853;46.166;3.640;2024-03-22T13:48:55;6.43;;;5.65;;
74102;SDS011;62853;46.166;3.640;2024-03-22T13:51:21;6.25;;;5.35;;
74102;SDS011;62853;46.166;3.640;2024-03-22T13:53:46;6.18;;;5.03;;
74102;SDS011;62853;46.166;3.640;2024-03-22T13:56:11;6.93;;;5.60;;
74102;SDS011;62853;46.166;3.640;2024-03-22T13:58:37;6.65;;;5.47;;
74102;SDS011;62853;46.166;3.640;2024-03-22T14:01:03;6.35;;;5.18;;
74102;SDS011;62853;46.166;3.640;2024-03-22T14:03:28;7.15;;;5.95;;
74102;SDS011;62853;46.166;3.640;2024-03-22T14:05:54;7.45;;;6.32;;
74102;SDS011;62853;46.166;3.640;2024-03-22T14:08:19;6.60;;;5.72;;
74102;SDS011;62853;46.166;3.640;2024-03-22T14:10:45;6.70;;;6.00;;
74102;SDS011;62853;46.166;3.640;2024-03-22T14:13:11;5.90;;;5.22;;
74102;SDS011;62853;46.166;3.640;2024-03-22T14:15:36;6.10;;;5.30;;
74102;SDS011;62853;46.166;3.640;2024-03-22T14:18:03;6.65;;;5.78;;
74102;SDS011;62853;46.166;3.640;2024-03-22T14:20:29;6.43;;;5.40;;
74102;SDS011;62853;46.166;3.640;2024-03-22T14:22:54;6.43;;;5.72;;
74102;SDS011;62853;46.166;3.640;2024-03-22T14:25:20;7.28;;;5.57;;
74102;SDS011;62853;46.166;3.640;2024-03-22T14:27:45;6.55;;;5.28;;
74102;SDS011;62853;46.166;3.640;2024-03-22T14:30:11;5.57;;;4.50;;
74102;SDS011;62853;46.166;3.640;2024-03-22T14:32:38;7.15;;;5.40;;
74102;SDS011;62853;46.166;3.640;2024-03-22T14:35:07;6.50;;;5.40;;
74102;SDS011;62853;46.166;3.640;2024-03-22T14:37:33;6.35;;;5.05;;
74102;SDS011;62853;46.166;3.640;2024-03-22T14:39:59;5.78;;;5.00;;
74102;SDS011;62853;46.166;3.640;2024-03-22T14:42:24;5.13;;;4.57;;